sensor_id;sensor_type;location;lat;lon;timestamp;P1;durP1;ratioP1;P2;durP2;ratioP2
53710;SDS011;39605;52.704;6.752;2023-07-08T00:01:54;2.85;;;2.65;;
53710;SDS011;39605;52.704;6.752;2023-07-08T00:04:20;3.15;;;2.22;;
53710;SDS011;39605;52.704;6.752;2023-07-08T00:06:47;2.05;;;1.95;;
53710;SDS011;39605;52.704;6.752;2023-07-08T00:09:14;4.60;;;2.30;;
53710;SDS011;39605;52.704;6.752;2023-07-08T00:11:40;2.95;;;2.40;;
53710;SDS011;39605;52.704;6.752;2023-07-08T00:14:06;3.05;;;2.45;;
53710;SDS011;39605;52.704;6.752;2023-07-08T00:16:33;3.65;;;2.25;;
53710;SDS011;39605;52.704;6.752;2023-07-08T00:18:59;3.03;;;2.47;;
53710;SDS011;39605;52.704;6.752;2023-07-08T00:21:25;2.45;;;1.95;;
53710;SDS011;39605;52.704;6.752;2023-07-08T00:23:51;3.60;;;2.63;;
53710;SDS011;39605;52.704;6.752;2023-07-08T00:28:47;2.78;;;2.53;;
53710;SDS011;39605;52.704;6.752;2023-07-08T00:31:13;2.40;;;2.20;;
53710;SDS011;39605;52.704;6.752;2023-07-08T00:33:39;4.35;;;2.63;;
53710;SDS011;39605;52.704;6.752;2023-07-08T00:36:08;3.80;;;2.08;;
53710;SDS011;39605;52.704;6.752;2023-07-08T00:38:35;3.28;;;2.22;;
53710;SDS011;39605;52.704;6.752;2023-07-08T00:43:34;2.47;;;2.28;;
53710;SDS011;39605;52.704;6.752;2023-07-08T00:46:04;4.18;;;2.60;;
53710;SDS011;39605;52.704;6.752;2023-07-08T00:48:36;2.28;;;2.08;;
53710;SDS011;39605;52.704;6.752;2023-07-08T00:51:02;2.72;;;2.38;;
53710;SDS011;39605;52.704;6.752;2023-07-08T00:53:30;4.20;;;2.70;;
53710;SDS011;39605;52.704;6.752;2023-07-08T00:56:07;3.28;;;2.70;;
53710;SDS011;39605;52.704;6.752;2023-07-08T00:58:42;3.20;;;2.58;;
53710;SDS011;39605;52.704;6.752;2023-07-08T01:03:36;3.13;;;2.85;;
53710;SDS011;39605;52.704;6.752;2023-07-08T01:06:06;2.90;;;2.70;;
53710;SDS011;39605;52.704;6.752;2023-07-08T01:08:32;2.70;;;2.50;;
53710;SDS011;39605;52.704;6.752;2023-07-08T01:10:59;3.13;;;2.88;;
53710;SDS011;39605;52.704;6.752;2023-07-08T01:13:28;2.90;;;2.70;;
53710;SDS011;39605;52.704;6.752;2023-07-08T01:15:55;3.47;;;2.83;;
53710;SDS011;39605;52.704;6.752;2023-07-08T01:18:21;4.97;;;3.38;;
53710;SDS011;39605;52.704;6.752;2023-07-08T01:20:49;4.68;;;2.80;;
53710;SDS011;39605;52.704;6.752;2023-07-08T01:23:16;3.15;;;2.80;;
53710;SDS011;39605;52.704;6.752;2023-07-08T01:25:42;3.50;;;3.20;;
53710;SDS011;39605;52.704;6.752;2023-07-08T01:28:09;3.40;;;3.10;;
53710;SDS011;39605;52.704;6.752;2023-07-08T01:30:35;4.45;;;3.10;;
53710;SDS011;39605;52.704;6.752;2023-07-08T01:33:02;3.55;;;2.80;;
53710;SDS011;39605;52.704;6.752;2023-07-08T01:35:30;3.55;;;3.22;;
53710;SDS011;39605;52.704;6.752;2023-07-08T01:37:58;3.60;;;2.88;;
53710;SDS011;39605;52.704;6.752;2023-07-08T01:40:26;3.42;;;2.85;;
53710;SDS011;39605;52.704;6.752;2023-07-08T01:42:53;3.80;;;2.90;;
53710;SDS011;39605;52.704;6.752;2023-07-08T01:45:20;4.18;;;3.20;;
53710;SDS011;39605;52.704;6.752;2023-07-08T01:48:03;3.50;;;3.20;;
53710;SDS011;39605;52.704;6.752;2023-07-08T01:50:29;4.10;;;3.78;;
53710;SDS011;39605;52.704;6.752;2023-07-08T01:52:58;3.05;;;2.85;;
53710;SDS011;39605;52.704;6.752;2023-07-08T01:55:25;5.03;;;3.85;;
53710;SDS011;39605;52.704;6.752;2023-07-08T01:57:54;3.63;;;3.10;;
53710;SDS011;39605;52.704;6.752;2023-07-08T02:00:20;3.03;;;2.83;;
53710;SDS011;39605;52.704;6.752;2023-07-08T02:02:47;4.95;;;3.13;;
53710;SDS011;39605;52.704;6.752;2023-07-08T02:05:13;3.33;;;3.10;;
53710;SDS011;39605;52.704;6.752;2023-07-08T02:07:40;3.55;;;3.25;;
53710;SDS011;39605;52.704;6.752;2023-07-08T02:10:06;4.38;;;3.67;;
53710;SDS011;39605;52.704;6.752;2023-07-08T02:12:32;4.15;;;3.22;;
53710;SDS011;39605;52.704;6.752;2023-07-08T02:15:01;3.72;;;3.38;;
53710;SDS011;39605;52.704;6.752;2023-07-08T02:17:33;5.57;;;3.58;;
53710;SDS011;39605;52.704;6.752;2023-07-08T02:19:59;4.05;;;3.33;;
53710;SDS011;39605;52.704;6.752;2023-07-08T02:22:26;5.10;;;3.75;;
53710;SDS011;39605;52.704;6.752;2023-07-08T02:24:52;5.00;;;3.55;;
53710;SDS011;39605;52.704;6.752;2023-07-08T02:27:18;3.47;;;2.97;;
53710;SDS011;39605;52.704;6.752;2023-07-08T02:29:44;3.92;;;3.20;;
53710;SDS011;39605;52.704;6.752;2023-07-08T02:32:10;4.20;;;3.17;;
53710;SDS011;39605;52.704;6.752;2023-07-08T02:34:36;5.25;;;3.28;;
53710;SDS011;39605;52.704;6.752;2023-07-08T02:37:02;5.20;;;4.03;;
53710;SDS011;39605;52.704;6.752;2023-07-08T02:39:29;4.53;;;3.38;;
53710;SDS011;39605;52.704;6.752;2023-07-08T02:41:55;3.42;;;2.83;;
53710;SDS011;39605;52.704;6.752;2023-07-08T02:44:21;3.53;;;3.20;;
53710;SDS011;39605;52.704;6.752;2023-07-08T02:46:48;3.70;;;3.40;;
53710;SDS011;39605;52.704;6.752;2023-07-08T02:49:14;3.83;;;3.40;;
53710;SDS011;39605;52.704;6.752;2023-07-08T02:51:40;3.33;;;3.13;;
53710;SDS011;39605;52.704;6.752;2023-07-08T02:54:06;4.13;;;3.45;;
53710;SDS011;39605;52.704;6.752;2023-07-08T02:56:32;4.40;;;3.97;;
53710;SDS011;39605;52.704;6.752;2023-07-08T02:58:58;3.95;;;3.20;;
53710;SDS011;39605;52.704;6.752;2023-07-08T03:01:24;3.90;;;3.60;;
53710;SDS011;39605;52.704;6.752;2023-07-08T03:03:51;3.97;;;3.60;;
53710;SDS011;39605;52.704;6.752;2023-07-08T03:06:24;3.42;;;3.13;;
53710;SDS011;39605;52.704;6.752;2023-07-08T03:08:50;3.97;;;3.45;;
53710;SDS011;39605;52.704;6.752;2023-07-08T03:11:16;3.97;;;3.50;;
53710;SDS011;39605;52.704;6.752;2023-07-08T03:13:43;5.47;;;4.10;;
53710;SDS011;39605;52.704;6.752;2023-07-08T03:16:09;3.53;;;3.20;;
53710;SDS011;39605;52.704;6.752;2023-07-08T03:18:38;4.00;;;3.67;;
53710;SDS011;39605;52.704;6.752;2023-07-08T03:21:11;4.90;;;3.63;;
53710;SDS011;39605;52.704;6.752;2023-07-08T03:23:37;3.70;;;3.42;;
53710;SDS011;39605;52.704;6.752;2023-07-08T03:26:04;4.47;;;4.15;;
53710;SDS011;39605;52.704;6.752;2023-07-08T03:28:30;6.63;;;4.05;;
53710;SDS011;39605;52.704;6.752;2023-07-08T03:30:56;3.60;;;3.40;;
53710;SDS011;39605;52.704;6.752;2023-07-08T03:33:22;3.53;;;3.22;;
53710;SDS011;39605;52.704;6.752;2023-07-08T03:35:49;5.28;;;4.55;;
53710;SDS011;39605;52.704;6.752;2023-07-08T03:38:15;4.25;;;3.65;;
53710;SDS011;39605;52.704;6.752;2023-07-08T03:40:41;4.43;;;3.22;;
53710;SDS011;39605;52.704;6.752;2023-07-08T03:43:09;4.18;;;3.78;;
53710;SDS011;39605;52.704;6.752;2023-07-08T03:45:35;7.60;;;4.20;;
53710;SDS011;39605;52.704;6.752;2023-07-08T03:48:01;4.22;;;3.83;;
53710;SDS011;39605;52.704;6.752;2023-07-08T03:50:28;4.32;;;3.92;;
53710;SDS011;39605;52.704;6.752;2023-07-08T03:52:54;4.75;;;3.30;;
53710;SDS011;39605;52.704;6.752;2023-07-08T03:55:20;4.00;;;3.70;;
53710;SDS011;39605;52.704;6.752;2023-07-08T03:57:47;4.90;;;3.85;;
53710;SDS011;39605;52.704;6.752;2023-07-08T04:00:14;3.90;;;3.58;;
53710;SDS011;39605;52.704;6.752;2023-07-08T04:02:41;4.55;;;3.88;;
53710;SDS011;39605;52.704;6.752;2023-07-08T04:05:10;5.40;;;3.90;;
53710;SDS011;39605;52.704;6.752;2023-07-08T04:07:38;3.80;;;3.50;;
53710;SDS011;39605;52.704;6.752;2023-07-08T04:10:05;4.25;;;3.80;;
53710;SDS011;39605;52.704;6.752;2023-07-08T04:12:31;4.40;;;4.10;;
53710;SDS011;39605;52.704;6.752;2023-07-08T04:14:57;5.28;;;4.00;;
53710;SDS011;39605;52.704;6.752;2023-07-08T04:17:23;4.15;;;3.80;;
53710;SDS011;39605;52.704;6.752;2023-07-08T04:19:49;3.97;;;3.75;;
53710;SDS011;39605;52.704;6.752;2023-07-08T04:22:16;3.88;;;3.45;;
53710;SDS011;39605;52.704;6.752;2023-07-08T04:24:43;4.03;;;3.65;;
53710;SDS011;39605;52.704;6.752;2023-07-08T04:27:12;4.28;;;3.53;;
53710;SDS011;39605;52.704;6.752;2023-07-08T04:29:39;4.03;;;3.72;;
53710;SDS011;39605;52.704;6.752;2023-07-08T04:32:05;4.82;;;4.03;;
53710;SDS011;39605;52.704;6.752;2023-07-08T04:34:31;3.97;;;3.33;;
53710;SDS011;39605;52.704;6.752;2023-07-08T04:36:57;4.18;;;3.97;;
53710;SDS011;39605;52.704;6.752;2023-07-08T04:39:27;4.07;;;3.83;;
53710;SDS011;39605;52.704;6.752;2023-07-08T04:41:53;9.80;;;3.38;;
53710;SDS011;39605;52.704;6.752;2023-07-08T04:44:19;3.20;;;2.90;;
53710;SDS011;39605;52.704;6.752;2023-07-08T04:46:46;4.38;;;3.28;;
53710;SDS011;39605;52.704;6.752;2023-07-08T04:49:13;3.67;;;3.33;;
53710;SDS011;39605;52.704;6.752;2023-07-08T04:51:40;3.15;;;2.95;;
53710;SDS011;39605;52.704;6.752;2023-07-08T04:54:06;3.65;;;3.35;;
53710;SDS011;39605;52.704;6.752;2023-07-08T04:56:43;4.72;;;3.50;;
53710;SDS011;39605;52.704;6.752;2023-07-08T04:59:14;4.90;;;3.92;;
53710;SDS011;39605;52.704;6.752;2023-07-08T05:01:41;3.55;;;3.10;;
53710;SDS011;39605;52.704;6.752;2023-07-08T05:04:07;3.03;;;2.83;;
53710;SDS011;39605;52.704;6.752;2023-07-08T05:06:34;3.90;;;2.95;;
53710;SDS011;39605;52.704;6.752;2023-07-08T05:09:01;4.15;;;3.40;;
53710;SDS011;39605;52.704;6.752;2023-07-08T05:11:27;3.78;;;3.58;;
53710;SDS011;39605;52.704;6.752;2023-07-08T05:13:54;3.95;;;3.55;;
53710;SDS011;39605;52.704;6.752;2023-07-08T05:16:20;3.88;;;3.58;;
53710;SDS011;39605;52.704;6.752;2023-07-08T05:18:46;3.50;;;3.20;;
53710;SDS011;39605;52.704;6.752;2023-07-08T05:21:12;3.33;;;3.13;;
53710;SDS011;39605;52.704;6.752;2023-07-08T05:23:38;4.43;;;4.00;;
53710;SDS011;39605;52.704;6.752;2023-07-08T05:26:04;4.30;;;3.42;;
53710;SDS011;39605;52.704;6.752;2023-07-08T05:28:32;3.63;;;3.42;;
53710;SDS011;39605;52.704;6.752;2023-07-08T05:30:59;4.32;;;3.60;;
53710;SDS011;39605;52.704;6.752;2023-07-08T05:33:25;4.38;;;3.25;;
53710;SDS011;39605;52.704;6.752;2023-07-08T05:35:52;4.70;;;3.88;;
53710;SDS011;39605;52.704;6.752;2023-07-08T05:38:18;3.45;;;3.20;;
53710;SDS011;39605;52.704;6.752;2023-07-08T05:40:48;3.03;;;2.92;;
53710;SDS011;39605;52.704;6.752;2023-07-08T05:43:15;3.35;;;3.08;;
53710;SDS011;39605;52.704;6.752;2023-07-08T05:45:42;3.38;;;2.88;;
53710;SDS011;39605;52.704;6.752;2023-07-08T05:48:08;2.70;;;2.50;;
53710;SDS011;39605;52.704;6.752;2023-07-08T05:50:34;3.10;;;2.85;;
53710;SDS011;39605;52.704;6.752;2023-07-08T05:53:00;3.50;;;2.83;;
53710;SDS011;39605;52.704;6.752;2023-07-08T05:55:26;3.92;;;2.72;;
53710;SDS011;39605;52.704;6.752;2023-07-08T05:57:52;3.97;;;2.85;;
53710;SDS011;39605;52.704;6.752;2023-07-08T06:00:18;2.65;;;2.45;;
53710;SDS011;39605;52.704;6.752;2023-07-08T06:02:44;2.92;;;2.72;;
53710;SDS011;39605;52.704;6.752;2023-07-08T06:05:10;3.35;;;2.75;;
53710;SDS011;39605;52.704;6.752;2023-07-08T06:07:37;3.60;;;2.25;;
53710;SDS011;39605;52.704;6.752;2023-07-08T06:10:03;3.35;;;2.17;;
53710;SDS011;39605;52.704;6.752;2023-07-08T06:12:29;2.97;;;2.53;;
53710;SDS011;39605;52.704;6.752;2023-07-08T06:14:56;2.33;;;1.98;;
53710;SDS011;39605;52.704;6.752;2023-07-08T06:17:22;2.83;;;2.63;;
53710;SDS011;39605;52.704;6.752;2023-07-08T06:19:48;3.25;;;1.98;;
53710;SDS011;39605;52.704;6.752;2023-07-08T06:22:14;3.10;;;2.80;;
53710;SDS011;39605;52.704;6.752;2023-07-08T06:24:40;2.55;;;1.98;;
53710;SDS011;39605;52.704;6.752;2023-07-08T06:27:06;2.72;;;2.50;;
53710;SDS011;39605;52.704;6.752;2023-07-08T06:29:33;2.85;;;2.05;;
53710;SDS011;39605;52.704;6.752;2023-07-08T06:31:59;3.38;;;2.00;;
53710;SDS011;39605;52.704;6.752;2023-07-08T06:34:25;2.55;;;1.95;;
53710;SDS011;39605;52.704;6.752;2023-07-08T06:36:51;2.45;;;2.25;;
53710;SDS011;39605;52.704;6.752;2023-07-08T06:39:18;2.17;;;1.98;;
53710;SDS011;39605;52.704;6.752;2023-07-08T06:41:44;3.10;;;1.55;;
53710;SDS011;39605;52.704;6.752;2023-07-08T06:44:10;2.35;;;2.10;;
53710;SDS011;39605;52.704;6.752;2023-07-08T06:46:36;2.10;;;2.00;;
53710;SDS011;39605;52.704;6.752;2023-07-08T06:49:03;2.63;;;1.92;;
53710;SDS011;39605;52.704;6.752;2023-07-08T06:51:29;4.13;;;1.98;;
53710;SDS011;39605;52.704;6.752;2023-07-08T06:53:55;2.72;;;1.77;;
53710;SDS011;39605;52.704;6.752;2023-07-08T06:56:21;1.77;;;1.30;;
53710;SDS011;39605;52.704;6.752;2023-07-08T06:58:47;3.05;;;1.77;;
53710;SDS011;39605;52.704;6.752;2023-07-08T07:01:13;3.45;;;1.83;;
53710;SDS011;39605;52.704;6.752;2023-07-08T07:03:40;3.15;;;1.90;;
53710;SDS011;39605;52.704;6.752;2023-07-08T07:06:06;2.65;;;1.33;;
53710;SDS011;39605;52.704;6.752;2023-07-08T07:08:33;2.53;;;1.52;;
53710;SDS011;39605;52.704;6.752;2023-07-08T07:10:59;4.53;;;1.83;;
53710;SDS011;39605;52.704;6.752;2023-07-08T07:13:25;4.70;;;1.58;;
53710;SDS011;39605;52.704;6.752;2023-07-08T07:15:51;2.05;;;1.33;;
53710;SDS011;39605;52.704;6.752;2023-07-08T07:18:17;2.33;;;1.60;;
53710;SDS011;39605;52.704;6.752;2023-07-08T07:20:52;4.07;;;1.50;;
53710;SDS011;39605;52.704;6.752;2023-07-08T07:25:45;1.67;;;1.30;;
53710;SDS011;39605;52.704;6.752;2023-07-08T07:28:13;3.38;;;1.10;;
53710;SDS011;39605;52.704;6.752;2023-07-08T07:30:39;5.50;;;1.90;;
53710;SDS011;39605;52.704;6.752;2023-07-08T07:33:05;2.22;;;1.60;;
53710;SDS011;39605;52.704;6.752;2023-07-08T07:35:31;2.60;;;1.75;;
53710;SDS011;39605;52.704;6.752;2023-07-08T07:37:57;2.83;;;1.33;;
53710;SDS011;39605;52.704;6.752;2023-07-08T07:40:23;1.30;;;1.20;;
53710;SDS011;39605;52.704;6.752;2023-07-08T07:42:49;1.55;;;1.45;;
53710;SDS011;39605;52.704;6.752;2023-07-08T07:45:15;4.55;;;1.52;;
53710;SDS011;39605;52.704;6.752;2023-07-08T07:47:41;1.80;;;1.48;;
53710;SDS011;39605;52.704;6.752;2023-07-08T07:50:08;2.90;;;1.73;;
53710;SDS011;39605;52.704;6.752;2023-07-08T07:52:35;2.75;;;1.60;;
53710;SDS011;39605;52.704;6.752;2023-07-08T07:55:02;2.65;;;1.50;;
53710;SDS011;39605;52.704;6.752;2023-07-08T07:57:28;2.78;;;1.10;;
53710;SDS011;39605;52.704;6.752;2023-07-08T07:59:55;2.42;;;1.42;;
53710;SDS011;39605;52.704;6.752;2023-07-08T08:02:21;5.10;;;1.88;;
53710;SDS011;39605;52.704;6.752;2023-07-08T08:04:47;1.48;;;1.35;;
53710;SDS011;39605;52.704;6.752;2023-07-08T08:07:13;1.55;;;1.45;;
53710;SDS011;39605;52.704;6.752;2023-07-08T08:09:39;3.85;;;1.40;;
53710;SDS011;39605;52.704;6.752;2023-07-08T08:12:07;1.70;;;1.42;;
53710;SDS011;39605;52.704;6.752;2023-07-08T08:14:33;3.38;;;1.17;;
53710;SDS011;39605;52.704;6.752;2023-07-08T08:16:59;4.03;;;1.48;;
53710;SDS011;39605;52.704;6.752;2023-07-08T08:19:25;4.53;;;1.45;;
53710;SDS011;39605;52.704;6.752;2023-07-08T08:21:51;2.38;;;1.20;;
53710;SDS011;39605;52.704;6.752;2023-07-08T08:24:17;2.00;;;1.00;;
53710;SDS011;39605;52.704;6.752;2023-07-08T08:26:43;4.70;;;1.33;;
53710;SDS011;39605;52.704;6.752;2023-07-08T08:29:10;5.05;;;1.05;;
53710;SDS011;39605;52.704;6.752;2023-07-08T08:31:36;3.13;;;1.00;;
53710;SDS011;39605;52.704;6.752;2023-07-08T08:34:02;5.97;;;1.25;;
53710;SDS011;39605;52.704;6.752;2023-07-08T08:36:28;2.70;;;1.25;;
53710;SDS011;39605;52.704;6.752;2023-07-08T08:38:54;1.65;;;1.40;;
53710;SDS011;39605;52.704;6.752;2023-07-08T08:41:21;1.73;;;0.98;;
53710;SDS011;39605;52.704;6.752;2023-07-08T08:43:48;4.35;;;1.60;;
53710;SDS011;39605;52.704;6.752;2023-07-08T08:48:43;2.15;;;1.40;;
53710;SDS011;39605;52.704;6.752;2023-07-08T08:51:12;2.85;;;1.48;;
53710;SDS011;39605;52.704;6.752;2023-07-08T08:53:39;1.55;;;0.95;;
53710;SDS011;39605;52.704;6.752;2023-07-08T09:01:06;2.78;;;1.30;;
53710;SDS011;39605;52.704;6.752;2023-07-08T09:05:59;2.15;;;1.20;;
53710;SDS011;39605;52.704;6.752;2023-07-08T09:08:31;2.42;;;1.10;;
53710;SDS011;39605;52.704;6.752;2023-07-08T09:13:41;3.15;;;1.02;;
53710;SDS011;39605;52.704;6.752;2023-07-08T09:16:10;4.40;;;1.38;;
53710;SDS011;39605;52.704;6.752;2023-07-08T09:18:46;1.73;;;1.30;;
53710;SDS011;39605;52.704;6.752;2023-07-08T09:21:18;3.08;;;1.38;;
53710;SDS011;39605;52.704;6.752;2023-07-08T09:23:45;5.05;;;1.27;;
53710;SDS011;39605;52.704;6.752;2023-07-08T09:26:15;3.45;;;1.30;;
53710;SDS011;39605;52.704;6.752;2023-07-08T09:28:43;2.78;;;1.30;;
53710;SDS011;39605;52.704;6.752;2023-07-08T09:31:18;3.05;;;1.40;;
53710;SDS011;39605;52.704;6.752;2023-07-08T09:33:46;1.95;;;1.20;;
53710;SDS011;39605;52.704;6.752;2023-07-08T09:36:21;2.53;;;1.13;;
53710;SDS011;39605;52.704;6.752;2023-07-08T09:38:48;1.83;;;1.50;;
53710;SDS011;39605;52.704;6.752;2023-07-08T09:41:17;4.63;;;1.23;;
53710;SDS011;39605;52.704;6.752;2023-07-08T09:44:00;2.92;;;0.90;;
53710;SDS011;39605;52.704;6.752;2023-07-08T09:46:28;2.53;;;1.02;;
53710;SDS011;39605;52.704;6.752;2023-07-08T09:48:54;2.20;;;1.20;;
53710;SDS011;39605;52.704;6.752;2023-07-08T09:51:22;3.55;;;1.35;;
53710;SDS011;39605;52.704;6.752;2023-07-08T09:53:48;1.55;;;1.00;;
53710;SDS011;39605;52.704;6.752;2023-07-08T09:56:14;1.20;;;1.10;;
53710;SDS011;39605;52.704;6.752;2023-07-08T09:58:41;3.97;;;1.20;;
53710;SDS011;39605;52.704;6.752;2023-07-08T10:01:10;6.80;;;1.40;;
53710;SDS011;39605;52.704;6.752;2023-07-08T10:03:37;3.45;;;1.38;;
53710;SDS011;39605;52.704;6.752;2023-07-08T10:06:05;1.08;;;0.90;;
53710;SDS011;39605;52.704;6.752;2023-07-08T10:08:40;2.30;;;1.15;;
53710;SDS011;39605;52.704;6.752;2023-07-08T10:13:38;1.80;;;1.23;;
53710;SDS011;39605;52.704;6.752;2023-07-08T10:18:38;3.45;;;1.10;;
53710;SDS011;39605;52.704;6.752;2023-07-08T10:21:15;5.40;;;1.02;;
53710;SDS011;39605;52.704;6.752;2023-07-08T10:24:13;3.17;;;1.10;;
53710;SDS011;39605;52.704;6.752;2023-07-08T10:26:44;2.40;;;0.85;;
53710;SDS011;39605;52.704;6.752;2023-07-08T10:37:28;2.00;;;0.82;;
53710;SDS011;39605;52.704;6.752;2023-07-08T10:44:48;1.30;;;0.90;;
53710;SDS011;39605;52.704;6.752;2023-07-08T10:52:41;3.30;;;1.20;;
53710;SDS011;39605;52.704;6.752;2023-07-08T10:57:47;5.03;;;1.25;;
53710;SDS011;39605;52.704;6.752;2023-07-08T11:03:04;2.53;;;0.80;;
53710;SDS011;39605;52.704;6.752;2023-07-08T11:08:03;2.17;;;1.35;;
53710;SDS011;39605;52.704;6.752;2023-07-08T11:10:36;3.47;;;1.17;;
53710;SDS011;39605;52.704;6.752;2023-07-08T11:13:13;2.70;;;1.48;;
53710;SDS011;39605;52.704;6.752;2023-07-08T11:15:43;8.75;;;1.50;;
53710;SDS011;39605;52.704;6.752;2023-07-08T11:18:31;3.55;;;1.50;;
53710;SDS011;39605;52.704;6.752;2023-07-08T11:21:10;1.73;;;1.50;;
53710;SDS011;39605;52.704;6.752;2023-07-08T11:23:38;2.30;;;1.65;;
53710;SDS011;39605;52.704;6.752;2023-07-08T11:28:42;3.25;;;1.48;;
53710;SDS011;39605;52.704;6.752;2023-07-08T11:31:08;2.35;;;2.00;;
53710;SDS011;39605;52.704;6.752;2023-07-08T11:33:35;1.92;;;1.55;;
53710;SDS011;39605;52.704;6.752;2023-07-08T11:36:02;3.15;;;1.13;;
53710;SDS011;39605;52.704;6.752;2023-07-08T11:38:31;2.92;;;1.63;;
53710;SDS011;39605;52.704;6.752;2023-07-08T11:41:11;3.75;;;2.03;;
53710;SDS011;39605;52.704;6.752;2023-07-08T11:43:48;3.65;;;2.00;;
53710;SDS011;39605;52.704;6.752;2023-07-08T11:46:18;3.63;;;2.60;;
53710;SDS011;39605;52.704;6.752;2023-07-08T11:48:49;2.50;;;2.22;;
53710;SDS011;39605;52.704;6.752;2023-07-08T11:51:35;2.25;;;1.98;;
53710;SDS011;39605;52.704;6.752;2023-07-08T11:56:58;2.45;;;2.22;;
53710;SDS011;39605;52.704;6.752;2023-07-08T11:59:25;3.08;;;1.88;;
53710;SDS011;39605;52.704;6.752;2023-07-08T12:04:56;2.58;;;2.10;;
53710;SDS011;39605;52.704;6.752;2023-07-08T12:07:32;2.60;;;2.40;;
53710;SDS011;39605;52.704;6.752;2023-07-08T12:10:00;3.35;;;2.55;;
53710;SDS011;39605;52.704;6.752;2023-07-08T12:12:32;3.17;;;2.35;;
53710;SDS011;39605;52.704;6.752;2023-07-08T12:15:00;2.90;;;2.60;;
53710;SDS011;39605;52.704;6.752;2023-07-08T12:17:30;2.70;;;2.50;;
53710;SDS011;39605;52.704;6.752;2023-07-08T12:19:56;4.05;;;2.97;;
53710;SDS011;39605;52.704;6.752;2023-07-08T12:22:24;2.88;;;2.67;;
53710;SDS011;39605;52.704;6.752;2023-07-08T12:24:50;5.57;;;2.53;;
53710;SDS011;39605;52.704;6.752;2023-07-08T12:27:16;5.43;;;2.83;;
53710;SDS011;39605;52.704;6.752;2023-07-08T12:29:42;3.25;;;2.72;;
53710;SDS011;39605;52.704;6.752;2023-07-08T12:32:10;6.70;;;3.28;;
53710;SDS011;39605;52.704;6.752;2023-07-08T12:34:38;3.15;;;2.65;;
53710;SDS011;39605;52.704;6.752;2023-07-08T12:37:07;6.93;;;2.75;;
53710;SDS011;39605;52.704;6.752;2023-07-08T12:39:35;2.78;;;2.58;;
53710;SDS011;39605;52.704;6.752;2023-07-08T12:42:01;4.30;;;2.78;;
53710;SDS011;39605;52.704;6.752;2023-07-08T12:44:32;2.78;;;2.58;;
53710;SDS011;39605;52.704;6.752;2023-07-08T12:47:01;3.10;;;2.83;;
53710;SDS011;39605;52.704;6.752;2023-07-08T12:49:28;4.03;;;3.00;;
53710;SDS011;39605;52.704;6.752;2023-07-08T12:51:55;3.58;;;3.28;;
53710;SDS011;39605;52.704;6.752;2023-07-08T12:54:21;3.35;;;3.13;;
53710;SDS011;39605;52.704;6.752;2023-07-08T12:56:47;3.78;;;2.78;;
53710;SDS011;39605;52.704;6.752;2023-07-08T12:59:14;3.00;;;2.80;;
53710;SDS011;39605;52.704;6.752;2023-07-08T13:01:43;4.80;;;3.03;;
53710;SDS011;39605;52.704;6.752;2023-07-08T13:04:12;3.20;;;3.05;;
53710;SDS011;39605;52.704;6.752;2023-07-08T13:06:38;3.55;;;3.22;;
53710;SDS011;39605;52.704;6.752;2023-07-08T13:09:50;3.40;;;3.20;;
53710;SDS011;39605;52.704;6.752;2023-07-08T13:11:51;3.42;;;3.22;;
53710;SDS011;39605;52.704;6.752;2023-07-08T13:14:21;2.97;;;2.78;;
53710;SDS011;39605;52.704;6.752;2023-07-08T13:16:48;3.45;;;3.03;;
53710;SDS011;39605;52.704;6.752;2023-07-08T13:19:14;4.15;;;3.20;;
53710;SDS011;39605;52.704;6.752;2023-07-08T13:21:40;3.38;;;3.13;;
53710;SDS011;39605;52.704;6.752;2023-07-08T13:24:09;3.47;;;3.17;;
53710;SDS011;39605;52.704;6.752;2023-07-08T13:26:39;3.00;;;2.72;;
53710;SDS011;39605;52.704;6.752;2023-07-08T13:29:13;3.83;;;3.28;;
53710;SDS011;39605;52.704;6.752;2023-07-08T13:31:41;3.05;;;2.85;;
53710;SDS011;39605;52.704;6.752;2023-07-08T13:34:08;3.75;;;3.00;;
53710;SDS011;39605;52.704;6.752;2023-07-08T13:36:37;4.05;;;3.65;;
53710;SDS011;39605;52.704;6.752;2023-07-08T13:39:05;4.40;;;4.00;;
53710;SDS011;39605;52.704;6.752;2023-07-08T13:41:32;3.38;;;3.17;;
53710;SDS011;39605;52.704;6.752;2023-07-08T13:44:03;3.65;;;3.30;;
53710;SDS011;39605;52.704;6.752;2023-07-08T13:46:34;4.05;;;3.40;;
53710;SDS011;39605;52.704;6.752;2023-07-08T13:51:36;4.03;;;3.72;;
53710;SDS011;39605;52.704;6.752;2023-07-08T13:54:24;3.30;;;3.10;;
53710;SDS011;39605;52.704;6.752;2023-07-08T13:56:51;3.58;;;3.38;;
53710;SDS011;39605;52.704;6.752;2023-07-08T13:59:21;3.67;;;3.58;;
53710;SDS011;39605;52.704;6.752;2023-07-08T14:01:48;3.67;;;3.47;;
53710;SDS011;39605;52.704;6.752;2023-07-08T14:04:17;3.70;;;3.40;;
53710;SDS011;39605;52.704;6.752;2023-07-08T14:06:44;4.40;;;3.67;;
53710;SDS011;39605;52.704;6.752;2023-07-08T14:11:40;4.32;;;4.00;;
53710;SDS011;39605;52.704;6.752;2023-07-08T14:14:07;4.88;;;3.90;;
53710;SDS011;39605;52.704;6.752;2023-07-08T14:16:34;5.90;;;3.90;;
53710;SDS011;39605;52.704;6.752;2023-07-08T14:19:01;3.83;;;3.50;;
53710;SDS011;39605;52.704;6.752;2023-07-08T14:21:38;3.50;;;3.30;;
53710;SDS011;39605;52.704;6.752;2023-07-08T14:24:22;4.13;;;3.85;;
53710;SDS011;39605;52.704;6.752;2023-07-08T14:26:48;4.25;;;3.97;;
53710;SDS011;39605;52.704;6.752;2023-07-08T14:29:14;5.43;;;3.88;;
53710;SDS011;39605;52.704;6.752;2023-07-08T14:31:40;4.32;;;4.07;;
53710;SDS011;39605;52.704;6.752;2023-07-08T14:34:09;4.03;;;3.80;;
53710;SDS011;39605;52.704;6.752;2023-07-08T14:36:36;4.03;;;3.63;;
53710;SDS011;39605;52.704;6.752;2023-07-08T14:39:08;4.18;;;3.78;;
53710;SDS011;39605;52.704;6.752;2023-07-08T14:41:34;5.15;;;3.95;;
53710;SDS011;39605;52.704;6.752;2023-07-08T14:44:01;4.85;;;4.07;;
53710;SDS011;39605;52.704;6.752;2023-07-08T14:46:27;4.82;;;3.63;;
53710;SDS011;39605;52.704;6.752;2023-07-08T14:48:53;4.50;;;4.20;;
53710;SDS011;39605;52.704;6.752;2023-07-08T14:51:19;5.75;;;3.90;;
53710;SDS011;39605;52.704;6.752;2023-07-08T14:53:45;4.38;;;4.07;;
53710;SDS011;39605;52.704;6.752;2023-07-08T14:56:13;3.67;;;3.47;;
53710;SDS011;39605;52.704;6.752;2023-07-08T14:58:40;4.15;;;3.95;;
53710;SDS011;39605;52.704;6.752;2023-07-08T15:01:15;4.05;;;3.85;;
53710;SDS011;39605;52.704;6.752;2023-07-08T15:03:43;4.25;;;3.95;;
53710;SDS011;39605;52.704;6.752;2023-07-08T15:06:09;4.80;;;4.40;;
53710;SDS011;39605;52.704;6.752;2023-07-08T15:08:36;4.03;;;3.83;;
53710;SDS011;39605;52.704;6.752;2023-07-08T15:11:02;3.50;;;3.17;;
53710;SDS011;39605;52.704;6.752;2023-07-08T15:13:31;4.38;;;4.07;;
53710;SDS011;39605;52.704;6.752;2023-07-08T15:15:57;4.18;;;3.90;;
53710;SDS011;39605;52.704;6.752;2023-07-08T15:18:24;4.25;;;3.95;;
53710;SDS011;39605;52.704;6.752;2023-07-08T15:20:50;5.05;;;4.13;;
53710;SDS011;39605;52.704;6.752;2023-07-08T15:23:16;5.43;;;3.80;;
53710;SDS011;39605;52.704;6.752;2023-07-08T15:25:44;4.43;;;4.03;;
53710;SDS011;39605;52.704;6.752;2023-07-08T15:28:16;4.45;;;4.05;;
53710;SDS011;39605;52.704;6.752;2023-07-08T15:30:43;4.30;;;4.00;;
53710;SDS011;39605;52.704;6.752;2023-07-08T15:33:10;4.43;;;4.03;;
53710;SDS011;39605;52.704;6.752;2023-07-08T15:35:36;4.38;;;4.00;;
53710;SDS011;39605;52.704;6.752;2023-07-08T15:38:02;5.97;;;4.63;;
53710;SDS011;39605;52.704;6.752;2023-07-08T15:40:33;4.35;;;3.97;;
53710;SDS011;39605;52.704;6.752;2023-07-08T15:43:00;4.05;;;3.85;;
53710;SDS011;39605;52.704;6.752;2023-07-08T15:45:36;4.28;;;4.00;;
53710;SDS011;39605;52.704;6.752;2023-07-08T15:48:03;4.20;;;3.90;;
53710;SDS011;39605;52.704;6.752;2023-07-08T15:50:29;4.35;;;4.07;;
53710;SDS011;39605;52.704;6.752;2023-07-08T15:52:56;4.07;;;3.85;;
53710;SDS011;39605;52.704;6.752;2023-07-08T15:55:29;3.47;;;3.28;;
53710;SDS011;39605;52.704;6.752;2023-07-08T16:00:23;3.90;;;3.70;;
53710;SDS011;39605;52.704;6.752;2023-07-08T16:02:49;4.07;;;3.78;;